Nearby METAR Reports

 

YMER - Merimbula Arpt, Australia
Distance from station: SE 12km
Updated: Sun, 24-Jun-2018 8:00pm AEST
Clear
Clear
 Wind from NW
Wind: NW 9 km/h
Temperature: 8°C
Wind Chill: 6°C
Dew Point: 4°C
Humidity: 76%
Barometer: 1028 hPa
Clouds: Clear
Visibility: 10 km
2018/06/24 10:00 YMER 241000Z AUTO 32005KT 9999 // NCD 08/04 Q1028
YCOM - Cooma Snowy Mtns, Australia
Distance from station: NW 96km
Updated: Sun, 24-Jun-2018 8:00pm AEST
Clear
Clear
 Wind from calm
Wind: Calm
Temperature: -3°C
Dew Point: -4°C
Humidity: 93%
Barometer: 1028 hPa
Clouds: Clear
Visibility: 10 km
2018/06/24 10:00 YCOM 241000Z AUTO 00000KT 9999 // NCD M03/M04 Q1028
 
YSCB - Canberra (civ/Mi, Australia
Distance from station: NNW 182km
Updated: Sun, 24-Jun-2018 8:30pm AEST
Clear
Clear
 Wind from ESE
Wind: ESE 9 km/h
Temperature: 0°C
Wind Chill: -3°C
Dew Point: -4°C
Humidity: 75%
Barometer: 1028 hPa
Clouds: Clear
Visibility: 10 km
2018/06/24 10:30 YSCB 241030Z AUTO 11005KT 020V140 9999 // NCD 00/M04 Q1028
YSNW - Nowra (aus-Navy), Australia
Distance from station: NNE 219km
Updated: Sun, 24-Jun-2018 8:00pm AEST
Clear
Clear
 Wind from W
Wind: W 11 km/h
Temperature: 6°C
Wind Chill: 4°C
Dew Point: 3°C
Humidity: 81%
Barometer: 1028 hPa
Clouds: Clear
Visibility: 10 km
2018/06/24 10:00 YSNW 241000Z AUTO 27006KT 9999 // NCD 06/03 Q1028
 
YMAY - Albury Airport, Australia
Distance from station: WNW 271km
Updated: Sun, 24-Jun-2018 8:00pm AEST
Clear
Clear
 Wind from S
Wind: S 6 km/h
Temperature: 5°C
Dew Point: 4°C
Humidity: 93%
Barometer: 1029 hPa
Clouds: Clear
Visibility: 10 km
2018/06/24 10:00 YMAY 241000Z AUTO 17003KT 9999 // NCD 05/04 Q1029
YSWG - Wagga Wagga(Cv/M, Australia
Distance from station: NW 283km
Updated: Sun, 24-Jun-2018 8:30pm AEST
Clear
Clear
 Wind from E
Wind: E 6 km/h
Temperature: 3°C
Dew Point: 3°C
Humidity: 100%
Barometer: 1028 hPa
Clouds: Clear
Visibility: 9 km
2018/06/24 10:30 YSWG 241030Z AUTO 08003KT 9000 // NCD 03/03 Q1028
 
YWGT - Wangaratta Arp, Australia
Distance from station: W 317km
Updated: Sun, 24-Jun-2018 8:00pm AEST
Clear
Clear
 Wind from S
Wind: S 11 km/h
Temperature: 7°C
Wind Chill: 5°C
Dew Point: 2°C
Humidity: 71%
Barometer: 1029 hPa
Clouds: Clear
Visibility: 10 km
2018/06/24 10:00 YWGT 241000Z AUTO 19006KT 9999 // NCD 07/02 Q1029
YSSY - Sydney Intl Airp, Australia
Distance from station: NNE 343km
Updated: Sun, 24-Jun-2018 8:30pm AEST
Few Clouds
Few Clouds
 Wind from SSE
Wind: SSE 17 km/h
Temperature: 13°C
Dew Point: 6°C
Humidity: 63%
Barometer: 1028 hPa
Clouds: Few Clouds
Visibility: 10 km
Cloud details: Few Clouds 1067 m
2018/06/24 10:30 YSSY 241030Z 16009KT 9999 FEW035 13/06 Q1028 NOSIG